sensor_id;sensor_type;location;lat;lon;timestamp;P1;durP1;ratioP1;P2;durP2;ratioP2
846;SDS011;410;48.954;9.474;2023-07-09T00:01:24;6.80;;;4.20;;
846;SDS011;410;48.954;9.474;2023-07-09T00:03:27;5.63;;;4.10;;
846;SDS011;410;48.954;9.474;2023-07-09T00:05:31;5.13;;;3.60;;
846;SDS011;410;48.954;9.474;2023-07-09T00:07:34;6.73;;;3.90;;
846;SDS011;410;48.954;9.474;2023-07-09T00:09:37;4.20;;;3.70;;
846;SDS011;410;48.954;9.474;2023-07-09T00:11:40;5.07;;;4.20;;
846;SDS011;410;48.954;9.474;2023-07-09T00:13:44;5.30;;;3.80;;
846;SDS011;410;48.954;9.474;2023-07-09T00:15:48;4.97;;;4.47;;
846;SDS011;410;48.954;9.474;2023-07-09T00:17:52;5.30;;;3.87;;
846;SDS011;410;48.954;9.474;2023-07-09T00:19:55;4.93;;;3.60;;
846;SDS011;410;48.954;9.474;2023-07-09T00:21:58;4.97;;;4.40;;
846;SDS011;410;48.954;9.474;2023-07-09T00:24:02;6.10;;;4.33;;
846;SDS011;410;48.954;9.474;2023-07-09T00:26:07;4.83;;;4.20;;
846;SDS011;410;48.954;9.474;2023-07-09T00:28:12;5.77;;;4.00;;
846;SDS011;410;48.954;9.474;2023-07-09T00:30:16;4.57;;;3.70;;
846;SDS011;410;48.954;9.474;2023-07-09T00:32:22;4.30;;;3.40;;
846;SDS011;410;48.954;9.474;2023-07-09T00:34:26;6.30;;;4.63;;
846;SDS011;410;48.954;9.474;2023-07-09T00:36:30;5.43;;;3.87;;
846;SDS011;410;48.954;9.474;2023-07-09T00:38:33;4.83;;;3.43;;
846;SDS011;410;48.954;9.474;2023-07-09T00:40:45;5.20;;;4.30;;
846;SDS011;410;48.954;9.474;2023-07-09T00:42:51;8.30;;;4.50;;
846;SDS011;410;48.954;9.474;2023-07-09T00:44:56;5.90;;;4.67;;
846;SDS011;410;48.954;9.474;2023-07-09T00:49:28;5.93;;;3.77;;
846;SDS011;410;48.954;9.474;2023-07-09T00:51:31;4.17;;;3.60;;
846;SDS011;410;48.954;9.474;2023-07-09T00:53:36;5.37;;;4.10;;
846;SDS011;410;48.954;9.474;2023-07-09T00:55:41;11.00;;;4.20;;
846;SDS011;410;48.954;9.474;2023-07-09T00:57:46;6.10;;;4.03;;
846;SDS011;410;48.954;9.474;2023-07-09T00:59:58;6.43;;;3.93;;
846;SDS011;410;48.954;9.474;2023-07-09T01:02:10;4.90;;;3.70;;
846;SDS011;410;48.954;9.474;2023-07-09T01:04:17;6.53;;;4.10;;
846;SDS011;410;48.954;9.474;2023-07-09T01:06:25;6.87;;;4.10;;
846;SDS011;410;48.954;9.474;2023-07-09T01:08:35;5.63;;;4.47;;
846;SDS011;410;48.954;9.474;2023-07-09T01:10:39;5.03;;;3.43;;
846;SDS011;410;48.954;9.474;2023-07-09T01:12:43;4.70;;;4.10;;
846;SDS011;410;48.954;9.474;2023-07-09T01:14:48;5.50;;;4.43;;
846;SDS011;410;48.954;9.474;2023-07-09T01:16:55;5.00;;;3.90;;
846;SDS011;410;48.954;9.474;2023-07-09T01:19:01;5.37;;;4.00;;
846;SDS011;410;48.954;9.474;2023-07-09T01:21:09;5.83;;;4.03;;
846;SDS011;410;48.954;9.474;2023-07-09T01:23:17;7.03;;;4.40;;
846;SDS011;410;48.954;9.474;2023-07-09T01:25:21;6.33;;;4.30;;
846;SDS011;410;48.954;9.474;2023-07-09T01:27:25;5.47;;;4.07;;
846;SDS011;410;48.954;9.474;2023-07-09T01:29:31;6.67;;;4.60;;
846;SDS011;410;48.954;9.474;2023-07-09T01:31:36;5.10;;;4.10;;
846;SDS011;410;48.954;9.474;2023-07-09T01:33:40;4.87;;;3.97;;
846;SDS011;410;48.954;9.474;2023-07-09T01:35:44;5.80;;;3.83;;
846;SDS011;410;48.954;9.474;2023-07-09T01:37:50;6.20;;;3.97;;
846;SDS011;410;48.954;9.474;2023-07-09T01:39:53;4.97;;;4.03;;
846;SDS011;410;48.954;9.474;2023-07-09T01:41:58;6.20;;;4.30;;
846;SDS011;410;48.954;9.474;2023-07-09T01:44:02;5.60;;;4.60;;
846;SDS011;410;48.954;9.474;2023-07-09T01:46:06;6.03;;;3.83;;
846;SDS011;410;48.954;9.474;2023-07-09T01:48:10;4.67;;;3.90;;
846;SDS011;410;48.954;9.474;2023-07-09T01:50:17;5.63;;;3.80;;
846;SDS011;410;48.954;9.474;2023-07-09T01:52:21;6.53;;;4.20;;
846;SDS011;410;48.954;9.474;2023-07-09T01:54:26;4.60;;;3.57;;
846;SDS011;410;48.954;9.474;2023-07-09T01:56:31;6.37;;;3.87;;
846;SDS011;410;48.954;9.474;2023-07-09T01:58:34;5.43;;;4.43;;
846;SDS011;410;48.954;9.474;2023-07-09T02:00:38;7.67;;;4.67;;
846;SDS011;410;48.954;9.474;2023-07-09T02:02:48;5.87;;;4.10;;
846;SDS011;410;48.954;9.474;2023-07-09T02:04:54;5.40;;;4.30;;
846;SDS011;410;48.954;9.474;2023-07-09T02:06:59;5.30;;;4.20;;
846;SDS011;410;48.954;9.474;2023-07-09T02:09:02;4.33;;;3.87;;
846;SDS011;410;48.954;9.474;2023-07-09T02:11:07;5.27;;;4.10;;
846;SDS011;410;48.954;9.474;2023-07-09T02:13:11;6.50;;;4.30;;
846;SDS011;410;48.954;9.474;2023-07-09T02:15:15;5.40;;;4.47;;
846;SDS011;410;48.954;9.474;2023-07-09T02:17:19;4.33;;;3.93;;
846;SDS011;410;48.954;9.474;2023-07-09T02:19:22;4.93;;;4.23;;
846;SDS011;410;48.954;9.474;2023-07-09T02:21:26;5.50;;;4.20;;
846;SDS011;410;48.954;9.474;2023-07-09T02:23:31;4.53;;;4.03;;
846;SDS011;410;48.954;9.474;2023-07-09T02:25:34;5.50;;;3.90;;
846;SDS011;410;48.954;9.474;2023-07-09T02:27:39;6.00;;;4.00;;
846;SDS011;410;48.954;9.474;2023-07-09T02:29:43;4.07;;;3.60;;
846;SDS011;410;48.954;9.474;2023-07-09T02:31:47;5.10;;;4.40;;
846;SDS011;410;48.954;9.474;2023-07-09T02:33:51;4.87;;;4.33;;
846;SDS011;410;48.954;9.474;2023-07-09T02:35:55;10.20;;;4.03;;
846;SDS011;410;48.954;9.474;2023-07-09T02:37:59;5.57;;;4.20;;
846;SDS011;410;48.954;9.474;2023-07-09T02:40:03;5.07;;;3.80;;
846;SDS011;410;48.954;9.474;2023-07-09T02:42:07;5.13;;;4.03;;
846;SDS011;410;48.954;9.474;2023-07-09T02:44:13;5.10;;;4.37;;
846;SDS011;410;48.954;9.474;2023-07-09T02:46:17;5.57;;;4.03;;
846;SDS011;410;48.954;9.474;2023-07-09T02:48:21;5.20;;;4.30;;
846;SDS011;410;48.954;9.474;2023-07-09T02:50:24;4.80;;;4.30;;
846;SDS011;410;48.954;9.474;2023-07-09T02:52:27;5.40;;;4.00;;
846;SDS011;410;48.954;9.474;2023-07-09T02:54:31;4.50;;;3.57;;
846;SDS011;410;48.954;9.474;2023-07-09T02:56:34;5.00;;;3.70;;
846;SDS011;410;48.954;9.474;2023-07-09T02:58:38;5.63;;;3.97;;
846;SDS011;410;48.954;9.474;2023-07-09T03:00:44;4.63;;;3.77;;
846;SDS011;410;48.954;9.474;2023-07-09T03:02:54;4.23;;;3.60;;
846;SDS011;410;48.954;9.474;2023-07-09T03:04:58;5.20;;;3.67;;
846;SDS011;410;48.954;9.474;2023-07-09T03:07:02;4.20;;;3.50;;
846;SDS011;410;48.954;9.474;2023-07-09T03:09:06;5.47;;;4.00;;
846;SDS011;410;48.954;9.474;2023-07-09T03:11:09;6.37;;;4.30;;
846;SDS011;410;48.954;9.474;2023-07-09T03:13:13;5.33;;;4.10;;
846;SDS011;410;48.954;9.474;2023-07-09T03:15:17;5.77;;;4.60;;
846;SDS011;410;48.954;9.474;2023-07-09T03:17:22;5.90;;;4.00;;
846;SDS011;410;48.954;9.474;2023-07-09T03:19:26;5.23;;;3.90;;
846;SDS011;410;48.954;9.474;2023-07-09T03:21:29;5.93;;;3.90;;
846;SDS011;410;48.954;9.474;2023-07-09T03:23:32;5.90;;;4.10;;
846;SDS011;410;48.954;9.474;2023-07-09T03:25:40;5.30;;;4.20;;
846;SDS011;410;48.954;9.474;2023-07-09T03:27:43;4.27;;;3.60;;
846;SDS011;410;48.954;9.474;2023-07-09T03:29:50;5.23;;;4.03;;
846;SDS011;410;48.954;9.474;2023-07-09T03:31:53;4.80;;;3.67;;
846;SDS011;410;48.954;9.474;2023-07-09T03:33:58;4.10;;;3.70;;
846;SDS011;410;48.954;9.474;2023-07-09T03:36:01;6.50;;;4.03;;
846;SDS011;410;48.954;9.474;2023-07-09T03:38:07;5.10;;;4.03;;
846;SDS011;410;48.954;9.474;2023-07-09T03:40:11;7.37;;;4.40;;
846;SDS011;410;48.954;9.474;2023-07-09T03:42:22;5.13;;;3.80;;
846;SDS011;410;48.954;9.474;2023-07-09T03:44:26;5.17;;;4.10;;
846;SDS011;410;48.954;9.474;2023-07-09T03:46:30;5.73;;;4.70;;
846;SDS011;410;48.954;9.474;2023-07-09T03:48:33;6.50;;;4.40;;
846;SDS011;410;48.954;9.474;2023-07-09T03:50:38;5.60;;;4.20;;
846;SDS011;410;48.954;9.474;2023-07-09T03:52:41;4.90;;;3.87;;
846;SDS011;410;48.954;9.474;2023-07-09T03:54:45;5.20;;;4.00;;
846;SDS011;410;48.954;9.474;2023-07-09T03:56:48;7.03;;;3.93;;
846;SDS011;410;48.954;9.474;2023-07-09T03:58:51;5.50;;;4.00;;
846;SDS011;410;48.954;9.474;2023-07-09T04:00:54;4.67;;;3.70;;
846;SDS011;410;48.954;9.474;2023-07-09T04:02:57;6.70;;;4.50;;
846;SDS011;410;48.954;9.474;2023-07-09T04:05:01;5.00;;;4.23;;
846;SDS011;410;48.954;9.474;2023-07-09T04:07:06;5.47;;;4.47;;
846;SDS011;410;48.954;9.474;2023-07-09T04:09:09;6.37;;;4.20;;
846;SDS011;410;48.954;9.474;2023-07-09T04:11:12;6.60;;;4.03;;
846;SDS011;410;48.954;9.474;2023-07-09T04:13:15;5.57;;;4.10;;
846;SDS011;410;48.954;9.474;2023-07-09T04:15:18;5.80;;;3.60;;
846;SDS011;410;48.954;9.474;2023-07-09T04:17:24;5.80;;;3.93;;
846;SDS011;410;48.954;9.474;2023-07-09T04:19:28;5.70;;;3.70;;
846;SDS011;410;48.954;9.474;2023-07-09T04:21:31;6.40;;;3.87;;
846;SDS011;410;48.954;9.474;2023-07-09T04:23:36;5.90;;;4.40;;
846;SDS011;410;48.954;9.474;2023-07-09T04:25:39;6.50;;;4.40;;
846;SDS011;410;48.954;9.474;2023-07-09T04:27:42;5.40;;;4.23;;
846;SDS011;410;48.954;9.474;2023-07-09T04:29:45;4.87;;;4.00;;
846;SDS011;410;48.954;9.474;2023-07-09T04:31:50;4.87;;;3.83;;
846;SDS011;410;48.954;9.474;2023-07-09T04:33:53;5.40;;;4.07;;
846;SDS011;410;48.954;9.474;2023-07-09T04:35:57;5.77;;;4.23;;
846;SDS011;410;48.954;9.474;2023-07-09T04:38:00;4.90;;;3.90;;
846;SDS011;410;48.954;9.474;2023-07-09T04:40:05;4.50;;;3.90;;
846;SDS011;410;48.954;9.474;2023-07-09T04:42:12;6.17;;;4.07;;
846;SDS011;410;48.954;9.474;2023-07-09T04:44:17;5.13;;;4.33;;
846;SDS011;410;48.954;9.474;2023-07-09T04:46:20;5.80;;;4.90;;
846;SDS011;410;48.954;9.474;2023-07-09T04:48:23;5.53;;;4.40;;
846;SDS011;410;48.954;9.474;2023-07-09T04:50:26;8.30;;;4.90;;
846;SDS011;410;48.954;9.474;2023-07-09T04:52:30;5.30;;;4.80;;
846;SDS011;410;48.954;9.474;2023-07-09T04:54:33;5.27;;;3.97;;
846;SDS011;410;48.954;9.474;2023-07-09T04:56:38;5.20;;;4.20;;
846;SDS011;410;48.954;9.474;2023-07-09T04:58:41;5.20;;;4.33;;
846;SDS011;410;48.954;9.474;2023-07-09T05:00:44;4.77;;;4.23;;
846;SDS011;410;48.954;9.474;2023-07-09T05:02:47;4.33;;;3.73;;
846;SDS011;410;48.954;9.474;2023-07-09T05:04:51;9.00;;;4.50;;
846;SDS011;410;48.954;9.474;2023-07-09T05:06:54;5.20;;;4.07;;
846;SDS011;410;48.954;9.474;2023-07-09T05:08:59;4.50;;;4.00;;
846;SDS011;410;48.954;9.474;2023-07-09T05:11:02;5.10;;;4.10;;
846;SDS011;410;48.954;9.474;2023-07-09T05:13:07;10.00;;;4.20;;
846;SDS011;410;48.954;9.474;2023-07-09T05:15:10;6.17;;;4.67;;
846;SDS011;410;48.954;9.474;2023-07-09T05:17:14;5.87;;;4.33;;
846;SDS011;410;48.954;9.474;2023-07-09T05:19:18;4.43;;;4.03;;
846;SDS011;410;48.954;9.474;2023-07-09T05:21:22;6.10;;;4.50;;
846;SDS011;410;48.954;9.474;2023-07-09T05:23:25;5.10;;;4.40;;
846;SDS011;410;48.954;9.474;2023-07-09T05:25:28;4.90;;;4.23;;
846;SDS011;410;48.954;9.474;2023-07-09T05:27:31;5.67;;;4.03;;
846;SDS011;410;48.954;9.474;2023-07-09T05:29:36;6.00;;;4.60;;
846;SDS011;410;48.954;9.474;2023-07-09T05:31:39;5.63;;;4.40;;
846;SDS011;410;48.954;9.474;2023-07-09T05:33:43;5.03;;;4.50;;
846;SDS011;410;48.954;9.474;2023-07-09T05:35:47;5.40;;;4.07;;
846;SDS011;410;48.954;9.474;2023-07-09T05:37:51;4.63;;;4.17;;
846;SDS011;410;48.954;9.474;2023-07-09T05:39:57;5.47;;;4.33;;
846;SDS011;410;48.954;9.474;2023-07-09T05:42:00;4.93;;;4.43;;
846;SDS011;410;48.954;9.474;2023-07-09T05:44:03;7.30;;;6.13;;
846;SDS011;410;48.954;9.474;2023-07-09T05:46:08;5.60;;;4.93;;
846;SDS011;410;48.954;9.474;2023-07-09T05:48:11;4.87;;;4.10;;
846;SDS011;410;48.954;9.474;2023-07-09T05:50:14;4.87;;;4.00;;
846;SDS011;410;48.954;9.474;2023-07-09T05:52:18;4.83;;;4.33;;
846;SDS011;410;48.954;9.474;2023-07-09T05:54:23;6.30;;;5.17;;
846;SDS011;410;48.954;9.474;2023-07-09T05:56:26;5.83;;;4.17;;
846;SDS011;410;48.954;9.474;2023-07-09T05:58:30;5.60;;;4.20;;
846;SDS011;410;48.954;9.474;2023-07-09T06:00:34;7.50;;;4.00;;
846;SDS011;410;48.954;9.474;2023-07-09T06:02:40;4.80;;;4.00;;
846;SDS011;410;48.954;9.474;2023-07-09T06:04:44;4.53;;;4.00;;
846;SDS011;410;48.954;9.474;2023-07-09T06:06:48;5.27;;;4.10;;
846;SDS011;410;48.954;9.474;2023-07-09T06:08:51;6.60;;;5.10;;
846;SDS011;410;48.954;9.474;2023-07-09T06:10:55;6.50;;;4.40;;
846;SDS011;410;48.954;9.474;2023-07-09T06:12:59;5.37;;;4.33;;
846;SDS011;410;48.954;9.474;2023-07-09T06:15:02;5.47;;;4.70;;
846;SDS011;410;48.954;9.474;2023-07-09T06:17:06;7.53;;;4.37;;
846;SDS011;410;48.954;9.474;2023-07-09T06:19:11;5.03;;;4.30;;
846;SDS011;410;48.954;9.474;2023-07-09T06:21:14;5.90;;;4.80;;
846;SDS011;410;48.954;9.474;2023-07-09T06:23:18;5.30;;;4.20;;
846;SDS011;410;48.954;9.474;2023-07-09T06:25:21;4.90;;;4.40;;
846;SDS011;410;48.954;9.474;2023-07-09T06:27:24;4.77;;;4.10;;
846;SDS011;410;48.954;9.474;2023-07-09T06:29:28;5.97;;;4.27;;
846;SDS011;410;48.954;9.474;2023-07-09T06:31:31;4.77;;;4.07;;
846;SDS011;410;48.954;9.474;2023-07-09T06:33:37;4.60;;;4.10;;
846;SDS011;410;48.954;9.474;2023-07-09T06:35:47;5.73;;;4.30;;
846;SDS011;410;48.954;9.474;2023-07-09T06:37:50;7.23;;;4.30;;
846;SDS011;410;48.954;9.474;2023-07-09T06:39:54;7.37;;;4.40;;
846;SDS011;410;48.954;9.474;2023-07-09T06:41:57;6.83;;;3.90;;
846;SDS011;410;48.954;9.474;2023-07-09T06:44:12;5.00;;;4.20;;
846;SDS011;410;48.954;9.474;2023-07-09T06:46:17;6.50;;;4.70;;
846;SDS011;410;48.954;9.474;2023-07-09T06:48:22;4.87;;;4.17;;
846;SDS011;410;48.954;9.474;2023-07-09T06:50:26;6.03;;;4.53;;
846;SDS011;410;48.954;9.474;2023-07-09T06:52:30;6.40;;;4.00;;
846;SDS011;410;48.954;9.474;2023-07-09T06:54:33;5.53;;;4.37;;
846;SDS011;410;48.954;9.474;2023-07-09T06:56:37;5.40;;;3.87;;
846;SDS011;410;48.954;9.474;2023-07-09T06:58:40;5.43;;;4.20;;
846;SDS011;410;48.954;9.474;2023-07-09T07:00:43;6.03;;;4.10;;
846;SDS011;410;48.954;9.474;2023-07-09T07:02:46;5.20;;;4.57;;
846;SDS011;410;48.954;9.474;2023-07-09T07:04:50;6.60;;;4.43;;
846;SDS011;410;48.954;9.474;2023-07-09T07:06:53;6.30;;;4.20;;
846;SDS011;410;48.954;9.474;2023-07-09T07:08:59;10.03;;;4.97;;
846;SDS011;410;48.954;9.474;2023-07-09T07:11:03;5.70;;;3.97;;
846;SDS011;410;48.954;9.474;2023-07-09T07:13:08;5.50;;;4.40;;
846;SDS011;410;48.954;9.474;2023-07-09T07:15:12;4.60;;;3.90;;
846;SDS011;410;48.954;9.474;2023-07-09T07:17:17;5.13;;;4.10;;
846;SDS011;410;48.954;9.474;2023-07-09T07:19:20;5.07;;;3.77;;
846;SDS011;410;48.954;9.474;2023-07-09T07:21:24;4.67;;;3.80;;
846;SDS011;410;48.954;9.474;2023-07-09T07:23:27;5.13;;;4.00;;
846;SDS011;410;48.954;9.474;2023-07-09T07:25:33;5.20;;;3.67;;
846;SDS011;410;48.954;9.474;2023-07-09T07:27:36;5.40;;;3.67;;
846;SDS011;410;48.954;9.474;2023-07-09T07:29:40;5.33;;;4.53;;
846;SDS011;410;48.954;9.474;2023-07-09T07:31:43;6.00;;;4.07;;
846;SDS011;410;48.954;9.474;2023-07-09T07:33:47;5.47;;;3.87;;
846;SDS011;410;48.954;9.474;2023-07-09T07:35:50;5.37;;;4.00;;
846;SDS011;410;48.954;9.474;2023-07-09T07:38:13;5.40;;;3.50;;
846;SDS011;410;48.954;9.474;2023-07-09T07:40:17;5.40;;;3.67;;
846;SDS011;410;48.954;9.474;2023-07-09T07:42:22;4.73;;;3.80;;
846;SDS011;410;48.954;9.474;2023-07-09T07:44:25;4.40;;;3.30;;
846;SDS011;410;48.954;9.474;2023-07-09T07:46:28;5.90;;;4.13;;
846;SDS011;410;48.954;9.474;2023-07-09T07:48:34;5.47;;;3.77;;
846;SDS011;410;48.954;9.474;2023-07-09T07:50:37;4.00;;;3.43;;
846;SDS011;410;48.954;9.474;2023-07-09T07:52:39;4.50;;;3.97;;
846;SDS011;410;48.954;9.474;2023-07-09T07:54:43;4.67;;;4.17;;
846;SDS011;410;48.954;9.474;2023-07-09T07:56:46;5.90;;;3.83;;
846;SDS011;410;48.954;9.474;2023-07-09T07:58:51;5.73;;;4.23;;
846;SDS011;410;48.954;9.474;2023-07-09T08:00:57;5.13;;;4.20;;
846;SDS011;410;48.954;9.474;2023-07-09T08:03:00;4.73;;;4.20;;
846;SDS011;410;48.954;9.474;2023-07-09T08:05:04;4.93;;;4.20;;
846;SDS011;410;48.954;9.474;2023-07-09T08:07:08;4.63;;;3.87;;
846;SDS011;410;48.954;9.474;2023-07-09T08:09:12;5.10;;;3.83;;
846;SDS011;410;48.954;9.474;2023-07-09T08:11:15;9.43;;;4.23;;
846;SDS011;410;48.954;9.474;2023-07-09T08:13:18;6.40;;;4.00;;
846;SDS011;410;48.954;9.474;2023-07-09T08:15:23;4.20;;;3.63;;
846;SDS011;410;48.954;9.474;2023-07-09T08:17:26;4.10;;;3.13;;
846;SDS011;410;48.954;9.474;2023-07-09T08:19:30;5.30;;;3.93;;
846;SDS011;410;48.954;9.474;2023-07-09T08:21:33;6.90;;;4.07;;
846;SDS011;410;48.954;9.474;2023-07-09T08:23:37;4.33;;;3.70;;
846;SDS011;410;48.954;9.474;2023-07-09T08:25:40;5.87;;;3.60;;
846;SDS011;410;48.954;9.474;2023-07-09T08:27:44;3.90;;;3.27;;
846;SDS011;410;48.954;9.474;2023-07-09T08:29:47;4.93;;;3.80;;
846;SDS011;410;48.954;9.474;2023-07-09T08:31:51;3.83;;;3.40;;
846;SDS011;410;48.954;9.474;2023-07-09T08:33:55;4.70;;;3.70;;
846;SDS011;410;48.954;9.474;2023-07-09T08:35:58;4.10;;;3.70;;
846;SDS011;410;48.954;9.474;2023-07-09T08:38:02;5.37;;;3.93;;
846;SDS011;410;48.954;9.474;2023-07-09T08:40:07;5.20;;;3.80;;
846;SDS011;410;48.954;9.474;2023-07-09T08:42:15;4.40;;;4.00;;
846;SDS011;410;48.954;9.474;2023-07-09T08:44:24;4.40;;;3.80;;
846;SDS011;410;48.954;9.474;2023-07-09T08:46:36;4.83;;;3.80;;
846;SDS011;410;48.954;9.474;2023-07-09T08:48:47;4.50;;;4.07;;
846;SDS011;410;48.954;9.474;2023-07-09T08:50:53;4.40;;;3.90;;
846;SDS011;410;48.954;9.474;2023-07-09T08:52:58;3.50;;;3.20;;
846;SDS011;410;48.954;9.474;2023-07-09T08:55:02;3.63;;;3.33;;
846;SDS011;410;48.954;9.474;2023-07-09T08:57:12;4.17;;;3.70;;
846;SDS011;410;48.954;9.474;2023-07-09T08:59:20;3.37;;;3.07;;
846;SDS011;410;48.954;9.474;2023-07-09T09:01:25;4.50;;;3.50;;
846;SDS011;410;48.954;9.474;2023-07-09T09:03:32;5.07;;;4.10;;
846;SDS011;410;48.954;9.474;2023-07-09T09:05:42;5.10;;;3.80;;
846;SDS011;410;48.954;9.474;2023-07-09T09:07:48;4.50;;;3.83;;
846;SDS011;410;48.954;9.474;2023-07-09T09:09:56;4.80;;;3.60;;
846;SDS011;410;48.954;9.474;2023-07-09T09:12:04;3.77;;;3.37;;
846;SDS011;410;48.954;9.474;2023-07-09T09:14:19;6.00;;;3.77;;
846;SDS011;410;48.954;9.474;2023-07-09T09:16:30;4.80;;;3.60;;
846;SDS011;410;48.954;9.474;2023-07-09T09:18:37;3.67;;;3.27;;
846;SDS011;410;48.954;9.474;2023-07-09T09:20:46;4.50;;;3.80;;
846;SDS011;410;48.954;9.474;2023-07-09T09:22:53;4.30;;;3.30;;
846;SDS011;410;48.954;9.474;2023-07-09T09:25:02;4.63;;;4.00;;
846;SDS011;410;48.954;9.474;2023-07-09T09:27:07;4.30;;;3.40;;
846;SDS011;410;48.954;9.474;2023-07-09T09:29:11;4.27;;;3.30;;
846;SDS011;410;48.954;9.474;2023-07-09T09:31:16;3.60;;;3.30;;
846;SDS011;410;48.954;9.474;2023-07-09T09:33:20;3.80;;;3.30;;
846;SDS011;410;48.954;9.474;2023-07-09T09:35:27;7.70;;;3.80;;
846;SDS011;410;48.954;9.474;2023-07-09T09:37:33;3.70;;;3.27;;
846;SDS011;410;48.954;9.474;2023-07-09T09:39:37;6.13;;;3.50;;
846;SDS011;410;48.954;9.474;2023-07-09T09:41:41;4.90;;;3.73;;
846;SDS011;410;48.954;9.474;2023-07-09T09:43:47;4.50;;;3.80;;
846;SDS011;410;48.954;9.474;2023-07-09T09:45:52;5.23;;;4.00;;
846;SDS011;410;48.954;9.474;2023-07-09T09:47:58;3.90;;;3.50;;
846;SDS011;410;48.954;9.474;2023-07-09T09:50:02;4.10;;;3.10;;
846;SDS011;410;48.954;9.474;2023-07-09T09:52:09;5.50;;;3.13;;
846;SDS011;410;48.954;9.474;2023-07-09T09:54:20;4.27;;;3.20;;
846;SDS011;410;48.954;9.474;2023-07-09T09:56:27;5.50;;;3.47;;
846;SDS011;410;48.954;9.474;2023-07-09T09:58:32;4.33;;;3.30;;
846;SDS011;410;48.954;9.474;2023-07-09T10:00:39;4.17;;;3.27;;
846;SDS011;410;48.954;9.474;2023-07-09T10:02:42;5.00;;;3.63;;
846;SDS011;410;48.954;9.474;2023-07-09T10:04:47;4.23;;;3.83;;
846;SDS011;410;48.954;9.474;2023-07-09T10:06:51;5.17;;;3.80;;
846;SDS011;410;48.954;9.474;2023-07-09T10:08:57;4.07;;;3.47;;
846;SDS011;410;48.954;9.474;2023-07-09T10:11:08;6.60;;;3.50;;
846;SDS011;410;48.954;9.474;2023-07-09T10:13:18;6.93;;;3.57;;
846;SDS011;410;48.954;9.474;2023-07-09T10:15:28;3.60;;;3.03;;
846;SDS011;410;48.954;9.474;2023-07-09T10:17:35;4.07;;;2.97;;
846;SDS011;410;48.954;9.474;2023-07-09T10:19:43;5.20;;;3.10;;
846;SDS011;410;48.954;9.474;2023-07-09T10:21:52;5.33;;;3.73;;
846;SDS011;410;48.954;9.474;2023-07-09T10:24:04;5.50;;;3.13;;
846;SDS011;410;48.954;9.474;2023-07-09T10:26:18;4.07;;;2.80;;
846;SDS011;410;48.954;9.474;2023-07-09T10:28:35;3.87;;;2.80;;
846;SDS011;410;48.954;9.474;2023-07-09T10:30:49;3.80;;;3.20;;
846;SDS011;410;48.954;9.474;2023-07-09T10:33:01;6.23;;;3.00;;
846;SDS011;410;48.954;9.474;2023-07-09T10:35:13;4.27;;;3.23;;
846;SDS011;410;48.954;9.474;2023-07-09T10:37:23;3.10;;;2.40;;
846;SDS011;410;48.954;9.474;2023-07-09T10:39:47;5.40;;;3.13;;
846;SDS011;410;48.954;9.474;2023-07-09T10:41:55;4.00;;;2.77;;
846;SDS011;410;48.954;9.474;2023-07-09T10:44:02;4.10;;;2.43;;
846;SDS011;410;48.954;9.474;2023-07-09T10:46:10;3.60;;;3.07;;
846;SDS011;410;48.954;9.474;2023-07-09T10:48:17;3.40;;;2.63;;
846;SDS011;410;48.954;9.474;2023-07-09T10:50:24;3.67;;;3.07;;
846;SDS011;410;48.954;9.474;2023-07-09T10:52:32;3.73;;;2.97;;
846;SDS011;410;48.954;9.474;2023-07-09T10:54:39;3.87;;;2.90;;
846;SDS011;410;48.954;9.474;2023-07-09T10:56:45;4.10;;;3.13;;
846;SDS011;410;48.954;9.474;2023-07-09T10:58:53;3.33;;;2.87;;
846;SDS011;410;48.954;9.474;2023-07-09T11:01:00;4.10;;;3.00;;
846;SDS011;410;48.954;9.474;2023-07-09T11:03:05;4.97;;;3.30;;
846;SDS011;410;48.954;9.474;2023-07-09T11:05:15;5.20;;;2.97;;
846;SDS011;410;48.954;9.474;2023-07-09T11:07:23;4.30;;;3.90;;
846;SDS011;410;48.954;9.474;2023-07-09T11:09:30;4.33;;;2.90;;
846;SDS011;410;48.954;9.474;2023-07-09T11:11:36;5.40;;;2.80;;
846;SDS011;410;48.954;9.474;2023-07-09T11:13:42;3.53;;;2.97;;
846;SDS011;410;48.954;9.474;2023-07-09T11:15:55;5.00;;;3.03;;
846;SDS011;410;48.954;9.474;2023-07-09T11:17:59;4.33;;;3.00;;
846;SDS011;410;48.954;9.474;2023-07-09T11:20:06;4.70;;;3.17;;
846;SDS011;410;48.954;9.474;2023-07-09T11:22:15;5.43;;;3.73;;
846;SDS011;410;48.954;9.474;2023-07-09T11:24:27;5.70;;;3.03;;
846;SDS011;410;48.954;9.474;2023-07-09T11:26:34;4.60;;;3.23;;
846;SDS011;410;48.954;9.474;2023-07-09T11:28:39;4.90;;;3.40;;
846;SDS011;410;48.954;9.474;2023-07-09T11:30:46;5.87;;;3.13;;
846;SDS011;410;48.954;9.474;2023-07-09T11:32:56;5.10;;;3.33;;
846;SDS011;410;48.954;9.474;2023-07-09T11:35:21;7.97;;;3.43;;
846;SDS011;410;48.954;9.474;2023-07-09T11:37:25;5.67;;;3.07;;
846;SDS011;410;48.954;9.474;2023-07-09T11:39:30;3.73;;;3.00;;
846;SDS011;410;48.954;9.474;2023-07-09T11:41:43;4.47;;;3.67;;
846;SDS011;410;48.954;9.474;2023-07-09T11:43:48;5.60;;;3.30;;
846;SDS011;410;48.954;9.474;2023-07-09T11:45:51;4.53;;;3.37;;
846;SDS011;410;48.954;9.474;2023-07-09T11:47:59;3.57;;;3.00;;
846;SDS011;410;48.954;9.474;2023-07-09T11:50:11;3.80;;;2.67;;
846;SDS011;410;48.954;9.474;2023-07-09T11:52:24;6.63;;;4.10;;
846;SDS011;410;48.954;9.474;2023-07-09T11:54:33;5.47;;;3.47;;
846;SDS011;410;48.954;9.474;2023-07-09T11:56:37;5.90;;;3.10;;
846;SDS011;410;48.954;9.474;2023-07-09T11:58:47;4.57;;;3.10;;
846;SDS011;410;48.954;9.474;2023-07-09T12:00:52;4.20;;;3.00;;
846;SDS011;410;48.954;9.474;2023-07-09T12:02:58;4.37;;;3.53;;
846;SDS011;410;48.954;9.474;2023-07-09T12:05:03;3.50;;;3.03;;
846;SDS011;410;48.954;9.474;2023-07-09T12:07:09;4.60;;;3.63;;
846;SDS011;410;48.954;9.474;2023-07-09T12:09:15;6.50;;;3.13;;
846;SDS011;410;48.954;9.474;2023-07-09T12:11:21;5.70;;;3.30;;
846;SDS011;410;48.954;9.474;2023-07-09T12:13:25;3.90;;;2.90;;
846;SDS011;410;48.954;9.474;2023-07-09T12:15:30;4.37;;;2.90;;
846;SDS011;410;48.954;9.474;2023-07-09T12:17:34;4.30;;;3.30;;
846;SDS011;410;48.954;9.474;2023-07-09T12:19:39;4.93;;;3.00;;
846;SDS011;410;48.954;9.474;2023-07-09T12:21:43;4.30;;;3.40;;
846;SDS011;410;48.954;9.474;2023-07-09T12:23:47;3.90;;;3.13;;
846;SDS011;410;48.954;9.474;2023-07-09T12:25:51;6.40;;;4.00;;
846;SDS011;410;48.954;9.474;2023-07-09T12:27:55;5.07;;;3.40;;
846;SDS011;410;48.954;9.474;2023-07-09T12:30:00;4.37;;;3.07;;
846;SDS011;410;48.954;9.474;2023-07-09T12:32:09;5.27;;;3.20;;
846;SDS011;410;48.954;9.474;2023-07-09T12:34:16;8.90;;;4.37;;
846;SDS011;410;48.954;9.474;2023-07-09T12:36:21;4.83;;;3.30;;
846;SDS011;410;48.954;9.474;2023-07-09T12:38:28;4.73;;;3.63;;
846;SDS011;410;48.954;9.474;2023-07-09T12:40:34;4.47;;;3.23;;
846;SDS011;410;48.954;9.474;2023-07-09T12:42:37;4.10;;;3.50;;
846;SDS011;410;48.954;9.474;2023-07-09T12:44:40;4.13;;;3.00;;
846;SDS011;410;48.954;9.474;2023-07-09T12:46:44;6.03;;;3.73;;
846;SDS011;410;48.954;9.474;2023-07-09T12:48:47;4.40;;;3.27;;
846;SDS011;410;48.954;9.474;2023-07-09T12:50:53;6.33;;;3.93;;
846;SDS011;410;48.954;9.474;2023-07-09T12:53:02;6.07;;;3.80;;
846;SDS011;410;48.954;9.474;2023-07-09T12:55:19;4.90;;;3.23;;
846;SDS011;410;48.954;9.474;2023-07-09T12:57:23;4.50;;;3.70;;
846;SDS011;410;48.954;9.474;2023-07-09T12:59:27;6.73;;;3.17;;
846;SDS011;410;48.954;9.474;2023-07-09T13:01:32;4.00;;;3.20;;
846;SDS011;410;48.954;9.474;2023-07-09T13:03:37;6.97;;;3.20;;
846;SDS011;410;48.954;9.474;2023-07-09T13:05:50;4.30;;;3.00;;
846;SDS011;410;48.954;9.474;2023-07-09T13:07:58;5.13;;;3.20;;
846;SDS011;410;48.954;9.474;2023-07-09T13:10:14;5.90;;;3.43;;
846;SDS011;410;48.954;9.474;2023-07-09T13:12:19;6.10;;;3.40;;
846;SDS011;410;48.954;9.474;2023-07-09T13:14:24;5.33;;;3.20;;
846;SDS011;410;48.954;9.474;2023-07-09T13:16:28;5.43;;;3.00;;
846;SDS011;410;48.954;9.474;2023-07-09T13:18:31;4.20;;;3.00;;
846;SDS011;410;48.954;9.474;2023-07-09T13:20:34;4.60;;;3.50;;
846;SDS011;410;48.954;9.474;2023-07-09T13:22:41;4.53;;;2.83;;
846;SDS011;410;48.954;9.474;2023-07-09T13:24:45;6.17;;;3.63;;
846;SDS011;410;48.954;9.474;2023-07-09T13:26:49;4.37;;;3.20;;